KADG

Lenawee County Airport

Adrian, Michigan, USA
METAR KADG 211253Z AUTO 17008KT 5SM BR OVC005 19/18 A2975 RMK AO2 SLP074 T01890178 TSNO
Observed Flight Rules
Jul-21 @ 12:53 UTC (49 minutes ago) Instrument Flight Rules
Wind Visibility Clouds Conditions
170° at 8 knots 5 miles
  • Overcast at 500' AGL
  • Mist
Temperatures Readings
Current 19°C / 66°F
Dewpoint 18°C / 64°F
Humidity 94%
Altimeter 29.75" Hg
Pressure 1007.4 hPa
Elevation 241
METAR KADG 211253Z AUTO 17008KT 5SM BR OVC005 19/18 A2975 RMK AO2 SLP074 T01890178 TSNO
Observed Flight Rules
Jul-21 @ 12:53 UTC
(49 minutes ago)
IFR
Wind Visibility
170° at 8 knots 5 miles
Clouds
  • Overcast at 500' AGL
Conditions
  • Mist
Temperature Dewpoint
19°C / 66°F 18°C / 64°F
Humidity Altimeter Pressure
94% 29.75" Hg 1007.4 hPa